Time;durP1;ratioP1;P1;durP2;ratioP2;P2;SDS_P1;SDS_P2;PMS_P1;PMS_P2;Temp;Humidity;BMP_temperature;BMP_pressure;BME280_temperature;BME280_humidity;BME280_pressure;Samples;Min_cycle;Max_cycle;Signal;HPM_P1;HPM_P2
2020/12/21 00:00:53;;;;;;;15.88;8.27;;;;;;;;;;4983963;28;20206;-68
2020/12/21 00:03:18;;;;;;;18.13;7.43;;;;;;;;;;4975364;28;20195;-70
2020/12/21 00:05:43;;;;;;;15.67;7.93;;;;;;;;;;4976993;28;20187;-68
2020/12/21 00:08:08;;;;;;;14.73;6.50;;;;;;;;;;4972158;28;22122;-69
2020/12/21 00:10:34;;;;;;;16.37;7.50;;;;;;;;;;4971516;28;20684;-69
2020/12/21 00:12:59;;;;;;;13.17;7.20;;;;;;;;;;4972454;28;20904;-69
2020/12/21 00:15:24;;;;;;;13.07;6.77;;;;;;;;;;4971526;28;20177;-69
2020/12/21 00:17:49;;;;;;;11.10;6.67;;;;;;;;;;4974958;28;20175;-69
2020/12/21 00:20:14;;;;;;;12.40;6.33;;;;;;;;;;4983238;28;20176;-68
2020/12/21 00:22:39;;;;;;;14.93;6.93;;;;;;;;;;4978863;28;20230;-68
2020/12/21 00:25:05;;;;;;;15.07;6.70;;;;;;;;;;4972070;28;20302;-69
2020/12/21 00:27:30;;;;;;;15.47;6.60;;;;;;;;;;4979885;28;20184;-70
2020/12/21 00:29:55;;;;;;;11.67;5.87;;;;;;;;;;4979565;28;20250;-69
2020/12/21 00:32:20;;;;;;;14.47;6.47;;;;;;;;;;4991416;28;20231;-69
2020/12/21 00:34:45;;;;;;;16.20;6.50;;;;;;;;;;4992878;28;20199;-69
2020/12/21 00:37:11;;;;;;;12.43;6.00;;;;;;;;;;4981406;28;20171;-69
2020/12/21 00:39:36;;;;;;;13.30;6.67;;;;;;;;;;4973755;28;20182;-69
2020/12/21 00:42:01;;;;;;;17.33;7.60;;;;;;;;;;4968901;28;20626;-68
2020/12/21 00:44:26;;;;;;;16.17;6.53;;;;;;;;;;4972387;28;20259;-69
2020/12/21 00:46:52;;;;;;;10.60;5.90;;;;;;;;;;4984277;28;20186;-69
2020/12/21 00:49:17;;;;;;;14.80;5.90;;;;;;;;;;4972202;28;20557;-69
2020/12/21 00:51:42;;;;;;;13.80;6.73;;;;;;;;;;4972043;28;20772;-69
2020/12/21 00:54:07;;;;;;;14.10;6.10;;;;;;;;;;4972383;28;20215;-69
2020/12/21 00:56:33;;;;;;;12.10;5.73;;;;;;;;;;4972226;28;20271;-68
2020/12/21 00:58:59;;;;;;;12.10;5.93;;;;;;;;;;4973350;28;20236;-69
2020/12/21 01:01:29;;;;;;;12.97;5.73;;;;;;;;;;4980637;28;20250;-69
2020/12/21 01:03:54;;;;;;;17.27;7.07;;;;;;;;;;4974490;28;20179;-68
2020/12/21 01:06:20;;;;;;;11.67;5.53;;;;;;;;;;4975104;28;20191;-68
2020/12/21 01:08:45;;;;;;;13.37;5.93;;;;;;;;;;4971974;28;20203;-69
2020/12/21 01:11:11;;;;;;;17.83;6.27;;;;;;;;;;4970734;28;20199;-68
2020/12/21 01:13:37;;;;;;;13.83;5.63;;;;;;;;;;4970763;28;20605;-69
2020/12/21 01:16:03;;;;;;;15.03;6.63;;;;;;;;;;4970886;28;20188;-69
2020/12/21 01:18:28;;;;;;;17.67;6.17;;;;;;;;;;4979227;28;20563;-69
2020/12/21 01:20:53;;;;;;;10.80;5.80;;;;;;;;;;4970756;28;20208;-69
2020/12/21 01:23:19;;;;;;;13.77;6.00;;;;;;;;;;4970085;28;20176;-69
2020/12/21 01:25:45;;;;;;;12.70;5.40;;;;;;;;;;4971169;28;20559;-69
2020/12/21 01:28:10;;;;;;;14.43;5.73;;;;;;;;;;4970347;28;20192;-68
2020/12/21 01:30:35;;;;;;;18.97;6.23;;;;;;;;;;4972104;28;20298;-69
2020/12/21 01:33:00;;;;;;;16.87;6.60;;;;;;;;;;4973717;28;20265;-69
2020/12/21 01:35:25;;;;;;;15.13;6.20;;;;;;;;;;4973878;28;20179;-68
2020/12/21 01:37:50;;;;;;;22.17;8.30;;;;;;;;;;4975982;28;20184;-69
2020/12/21 01:40:16;;;;;;;18.13;5.87;;;;;;;;;;4969188;28;20230;-71
2020/12/21 01:42:41;;;;;;;18.03;6.00;;;;;;;;;;4969721;28;20204;-68
2020/12/21 01:45:07;;;;;;;17.80;6.03;;;;;;;;;;4976755;28;20260;-69
2020/12/21 01:47:32;;;;;;;14.30;5.33;;;;;;;;;;4973530;28;20199;-69
2020/12/21 01:49:58;;;;;;;13.03;5.23;;;;;;;;;;4969938;28;20191;-69
2020/12/21 01:52:23;;;;;;;14.50;6.03;;;;;;;;;;4971717;28;20676;-68
2020/12/21 01:54:48;;;;;;;13.17;5.30;;;;;;;;;;4970897;28;20571;-69
2020/12/21 01:57:14;;;;;;;18.40;5.63;;;;;;;;;;4980467;28;20266;-69
2020/12/21 01:59:39;;;;;;;19.07;5.63;;;;;;;;;;4979065;28;20569;-69
2020/12/21 02:02:05;;;;;;;13.63;5.20;;;;;;;;;;4991846;28;20358;-68
2020/12/21 02:04:30;;;;;;;17.37;5.93;;;;;;;;;;4974662;28;20195;-69
2020/12/21 02:06:56;;;;;;;11.15;5.75;;;;;;;;;;4977541;28;20223;-68
2020/12/21 02:09:22;;;;;;;16.07;6.07;;;;;;;;;;4975911;28;20304;-70
2020/12/21 02:11:47;;;;;;;15.23;5.27;;;;;;;;;;4974048;28;20221;-69
2020/12/21 02:14:12;;;;;;;17.30;5.57;;;;;;;;;;4973699;28;20203;-69
2020/12/21 02:16:37;;;;;;;12.30;5.57;;;;;;;;;;4977454;28;20900;-69
2020/12/21 02:19:05;;;;;;;16.07;5.73;;;;;;;;;;4979962;28;20259;-69
2020/12/21 02:21:30;;;;;;;11.27;5.60;;;;;;;;;;4974990;28;20207;-69
2020/12/21 02:23:56;;;;;;;8.57;4.97;;;;;;;;;;4974225;28;20594;-68
2020/12/21 02:26:21;;;;;;;14.53;6.17;;;;;;;;;;4987031;28;20725;-68
2020/12/21 02:28:50;;;;;;;10.70;5.70;;;;;;;;;;4976574;28;20190;-68
2020/12/21 02:31:15;;;;;;;10.13;5.37;;;;;;;;;;4977645;28;20233;-68
2020/12/21 02:33:41;;;;;;;11.53;6.10;;;;;;;;;;4972850;28;20897;-68
2020/12/21 02:36:06;;;;;;;14.43;6.10;;;;;;;;;;4974254;28;20186;-69
2020/12/21 02:38:31;;;;;;;13.30;5.70;;;;;;;;;;4977716;28;20180;-68
2020/12/21 02:40:56;;;;;;;12.60;6.33;;;;;;;;;;4973958;28;20208;-69
2020/12/21 02:43:22;;;;;;;14.73;5.93;;;;;;;;;;4976247;28;20657;-69
2020/12/21 02:45:47;;;;;;;14.57;5.80;;;;;;;;;;4975857;28;20192;-67
2020/12/21 02:48:12;;;;;;;19.37;5.93;;;;;;;;;;4981882;28;20226;-69
2020/12/21 02:50:38;;;;;;;20.40;5.80;;;;;;;;;;4973924;28;20184;-68
2020/12/21 02:53:03;;;;;;;15.30;5.77;;;;;;;;;;4973525;28;20719;-68
2020/12/21 02:55:28;;;;;;;9.67;5.00;;;;;;;;;;4972125;28;20649;-68
2020/12/21 02:57:53;;;;;;;15.18;6.07;;;;;;;;;;4973083;28;20180;-69
2020/12/21 03:00:18;;;;;;;15.53;6.27;;;;;;;;;;4974558;28;20262;-68
2020/12/21 03:02:43;;;;;;;13.27;5.63;;;;;;;;;;4977173;28;20246;-68
2020/12/21 03:05:09;;;;;;;13.57;5.40;;;;;;;;;;4976704;28;20199;-69
2020/12/21 03:07:34;;;;;;;10.90;5.80;;;;;;;;;;4984482;28;20183;-68
2020/12/21 03:09:59;;;;;;;15.17;6.70;;;;;;;;;;4972186;28;20209;-69
2020/12/21 03:12:24;;;;;;;11.03;5.20;;;;;;;;;;4972830;28;20211;-68
2020/12/21 03:14:50;;;;;;;14.63;5.33;;;;;;;;;;4972824;28;20277;-69
2020/12/21 03:17:15;;;;;;;14.10;5.57;;;;;;;;;;4975885;28;20203;-68
2020/12/21 03:19:40;;;;;;;15.40;5.77;;;;;;;;;;4982673;28;20202;-68
2020/12/21 03:22:05;;;;;;;10.70;5.17;;;;;;;;;;4970872;28;20208;-69
2020/12/21 03:24:30;;;;;;;13.40;5.60;;;;;;;;;;4972173;28;20191;-68
2020/12/21 03:26:56;;;;;;;13.40;6.33;;;;;;;;;;4973052;28;20219;-68
2020/12/21 03:29:21;;;;;;;15.40;7.57;;;;;;;;;;4973112;28;20184;-67
2020/12/21 03:31:46;;;;;;;11.77;5.30;;;;;;;;;;4978163;28;20607;-69
2020/12/21 03:34:14;;;;;;;13.77;5.77;;;;;;;;;;4972315;28;20225;-69
2020/12/21 03:36:40;;;;;;;14.30;5.43;;;;;;;;;;4975017;28;20809;-68
2020/12/21 03:39:05;;;;;;;16.13;7.13;;;;;;;;;;4974424;28;20196;-68
2020/12/21 03:41:30;;;;;;;12.73;4.63;;;;;;;;;;4973927;28;20268;-69
2020/12/21 03:43:55;;;;;;;10.30;5.57;;;;;;;;;;4973987;28;20192;-68
2020/12/21 03:46:21;;;;;;;13.27;5.20;;;;;;;;;;4972169;28;20207;-68
2020/12/21 03:48:46;;;;;;;20.80;6.67;;;;;;;;;;4972025;28;20217;-67
2020/12/21 03:51:11;;;;;;;16.67;6.57;;;;;;;;;;4972931;28;20206;-67
2020/12/21 03:53:37;;;;;;;13.87;5.30;;;;;;;;;;4973405;28;20579;-67
2020/12/21 03:56:02;;;;;;;14.60;6.10;;;;;;;;;;4974017;28;20179;-67
2020/12/21 03:58:27;;;;;;;15.47;6.37;;;;;;;;;;4974048;28;20191;-67
2020/12/21 04:03:21;;;;;;;13.00;6.50;;;;;;;;;;4937562;28;20310;-70
2020/12/21 04:05:47;;;;;;;15.43;7.30;;;;;;;;;;4938181;28;20195;-70
2020/12/21 04:08:12;;;;;;;17.63;7.00;;;;;;;;;;4944314;28;22001;-71
2020/12/21 04:10:38;;;;;;;17.60;8.53;;;;;;;;;;4938289;28;20173;-70
2020/12/21 04:13:03;;;;;;;15.83;6.73;;;;;;;;;;4936711;28;20201;-70
2020/12/21 04:15:28;;;;;;;18.03;6.30;;;;;;;;;;4937620;28;20820;-70
2020/12/21 04:17:53;;;;;;;17.43;6.67;;;;;;;;;;4940719;28;20304;-70
2020/12/21 04:20:19;;;;;;;17.30;6.33;;;;;;;;;;4937614;28;20247;-70
2020/12/21 04:22:44;;;;;;;15.87;6.73;;;;;;;;;;4936340;28;20208;-70
2020/12/21 04:25:09;;;;;;;23.27;7.80;;;;;;;;;;4948917;28;20216;-70
2020/12/21 04:27:34;;;;;;;24.17;8.23;;;;;;;;;;4938140;28;20292;-70
2020/12/21 04:30:00;;;;;;;12.97;7.57;;;;;;;;;;4949694;28;20571;-69
2020/12/21 04:32:25;;;;;;;15.87;7.00;;;;;;;;;;4937534;28;20239;-70
2020/12/21 04:34:51;;;;;;;17.20;7.27;;;;;;;;;;4935971;28;21630;-70
2020/12/21 04:37:16;;;;;;;18.33;6.53;;;;;;;;;;4937312;28;20272;-69
2020/12/21 04:39:41;;;;;;;18.97;6.27;;;;;;;;;;4936368;28;20181;-70
2020/12/21 04:42:06;;;;;;;19.23;7.27;;;;;;;;;;4938233;28;21830;-69
2020/12/21 04:44:31;;;;;;;13.47;6.10;;;;;;;;;;4937225;28;20185;-70
2020/12/21 04:46:57;;;;;;;15.37;6.67;;;;;;;;;;4936746;28;20177;-70
2020/12/21 04:49:23;;;;;;;19.03;6.83;;;;;;;;;;4937917;28;20243;-69
2020/12/21 04:51:50;;;;;;;20.47;6.40;;;;;;;;;;4933824;28;20203;-69
2020/12/21 04:54:15;;;;;;;15.73;6.23;;;;;;;;;;4932289;28;20300;-70
2020/12/21 04:56:41;;;;;;;14.27;6.97;;;;;;;;;;4937215;28;20177;-70
2020/12/21 04:59:06;;;;;;;18.33;6.27;;;;;;;;;;4937697;28;20251;-70
2020/12/21 05:01:32;;;;;;;18.33;6.63;;;;;;;;;;4939267;28;20235;-69
2020/12/21 05:03:57;;;;;;;16.93;7.00;;;;;;;;;;4935772;28;20192;-70
2020/12/21 05:06:22;;;;;;;16.23;7.57;;;;;;;;;;4934643;28;20643;-70
2020/12/21 05:09:00;;;;;;;19.07;7.10;;;;;;;;;;4941851;28;20193;-69
2020/12/21 05:11:25;;;;;;;13.73;5.93;;;;;;;;;;4935419;28;20247;-69
2020/12/21 05:13:51;;;;;;;19.60;6.40;;;;;;;;;;4938066;28;20201;-67
2020/12/21 05:16:23;;;;;;;15.30;5.97;;;;;;;;;;4937490;28;20273;-68
2020/12/21 05:18:48;;;;;;;16.37;6.93;;;;;;;;;;4940302;28;20684;-68
2020/12/21 05:21:13;;;;;;;14.83;6.23;;;;;;;;;;4939923;28;20205;-69
2020/12/21 05:23:39;;;;;;;18.27;7.07;;;;;;;;;;4938082;28;20323;-69
2020/12/21 05:26:08;;;;;;;21.03;8.63;;;;;;;;;;4934804;28;20937;-69
2020/12/21 05:28:34;;;;;;;19.90;5.77;;;;;;;;;;4938298;28;20255;-70
2020/12/21 05:31:09;;;;;;;14.73;5.83;;;;;;;;;;4937254;28;20193;-69
2020/12/21 05:33:39;;;;;;;16.97;6.13;;;;;;;;;;4939750;28;20698;-69
2020/12/21 05:36:05;;;;;;;13.43;5.43;;;;;;;;;;4950824;28;20569;-69
2020/12/21 05:38:30;;;;;;;17.00;7.20;;;;;;;;;;4942445;28;20659;-69
2020/12/21 05:41:12;;;;;;;17.43;6.47;;;;;;;;;;4938614;28;20189;-68
2020/12/21 05:43:38;;;;;;;16.90;6.73;;;;;;;;;;4939105;28;20192;-69
2020/12/21 05:46:04;;;;;;;13.10;5.67;;;;;;;;;;4938797;28;20201;-68
2020/12/21 05:48:31;;;;;;;16.97;7.10;;;;;;;;;;4938807;28;20176;-68
2020/12/21 05:50:57;;;;;;;19.77;6.10;;;;;;;;;;4937375;28;20681;-69
2020/12/21 05:53:23;;;;;;;18.70;5.37;;;;;;;;;;4944280;28;20297;-68
2020/12/21 05:55:48;;;;;;;19.00;5.87;;;;;;;;;;4934830;28;20665;-71
2020/12/21 05:58:13;;;;;;;11.27;4.90;;;;;;;;;;4938922;28;20676;-69
2020/12/21 06:00:39;;;;;;;16.53;5.57;;;;;;;;;;4938850;28;20283;-69
2020/12/21 06:03:07;;;;;;;15.10;4.97;;;;;;;;;;4922071;28;537779;-69
2020/12/21 06:05:36;;;;;;;16.80;5.03;;;;;;;;;;4939788;28;20311;-69
2020/12/21 06:08:01;;;;;;;12.37;5.23;;;;;;;;;;4940909;28;20271;-68
2020/12/21 06:10:28;;;;;;;15.47;4.77;;;;;;;;;;4933974;28;20289;-68
2020/12/21 06:12:54;;;;;;;13.40;4.70;;;;;;;;;;4939880;28;20275;-69
2020/12/21 06:15:20;;;;;;;10.77;4.73;;;;;;;;;;4937218;28;20209;-69
2020/12/21 06:17:45;;;;;;;17.13;6.23;;;;;;;;;;4938265;28;20669;-69
2020/12/21 06:20:10;;;;;;;10.53;5.17;;;;;;;;;;4948411;28;20192;-69
2020/12/21 06:22:36;;;;;;;13.53;4.23;;;;;;;;;;4949962;28;20330;-69
2020/12/21 06:25:03;;;;;;;15.87;5.00;;;;;;;;;;4951177;28;20189;-69
2020/12/21 06:27:36;;;;;;;13.80;4.90;;;;;;;;;;4940594;28;20582;-69
2020/12/21 06:30:01;;;;;;;17.50;5.57;;;;;;;;;;4945183;28;20181;-70
2020/12/21 06:32:31;;;;;;;8.57;4.50;;;;;;;;;;4948347;28;20211;-67
2020/12/21 06:34:56;;;;;;;9.33;4.20;;;;;;;;;;4939699;28;20224;-67
2020/12/21 06:37:21;;;;;;;19.40;4.63;;;;;;;;;;4941668;28;20576;-69
2020/12/21 06:40:01;;;;;;;12.33;4.50;;;;;;;;;;4953963;28;20185;-68
2020/12/21 06:42:26;;;;;;;10.23;4.03;;;;;;;;;;4939882;28;20274;-67
2020/12/21 06:44:54;;;;;;;11.87;4.70;;;;;;;;;;4947116;28;20209;-68
2020/12/21 06:47:19;;;;;;;10.67;4.90;;;;;;;;;;4938556;28;20185;-68
2020/12/21 06:49:45;;;;;;;12.77;3.93;;;;;;;;;;4938139;28;20799;-67
2020/12/21 06:52:10;;;;;;;12.47;4.50;;;;;;;;;;4938520;28;20710;-68
2020/12/21 06:54:36;;;;;;;8.00;4.43;;;;;;;;;;4952759;28;20225;-68
2020/12/21 06:57:01;;;;;;;8.97;4.40;;;;;;;;;;4938334;28;20181;-68
2020/12/21 06:59:27;;;;;;;12.70;4.13;;;;;;;;;;4937698;28;20195;-68
2020/12/21 07:01:53;;;;;;;10.63;4.17;;;;;;;;;;4939173;28;20208;-68
2020/12/21 07:04:22;;;;;;;13.00;4.40;;;;;;;;;;4941141;28;20184;-68
2020/12/21 07:06:48;;;;;;;12.97;4.60;;;;;;;;;;4942113;28;20205;-68
2020/12/21 07:09:14;;;;;;;9.10;5.20;;;;;;;;;;4941558;28;20212;-69
2020/12/21 07:11:40;;;;;;;12.97;4.63;;;;;;;;;;4934484;28;20208;-68
2020/12/21 07:14:06;;;;;;;14.77;5.40;;;;;;;;;;4951407;28;20252;-68
2020/12/21 07:16:31;;;;;;;8.77;4.00;;;;;;;;;;4942538;28;20180;-68
2020/12/21 07:18:57;;;;;;;13.33;4.50;;;;;;;;;;4938876;28;20252;-69
2020/12/21 07:21:22;;;;;;;11.67;3.90;;;;;;;;;;4939681;28;20197;-69
2020/12/21 07:23:48;;;;;;;11.07;3.97;;;;;;;;;;4939026;28;20200;-68
2020/12/21 07:26:14;;;;;;;12.20;4.60;;;;;;;;;;4950484;28;20185;-69
2020/12/21 07:28:40;;;;;;;10.40;4.00;;;;;;;;;;4937388;28;20199;-68
2020/12/21 07:31:09;;;;;;;16.10;4.43;;;;;;;;;;4938021;28;20371;-68
2020/12/21 07:33:35;;;;;;;9.67;5.03;;;;;;;;;;4939542;28;20208;-69
2020/12/21 07:36:00;;;;;;;10.97;4.30;;;;;;;;;;4938486;28;20176;-69
2020/12/21 07:38:26;;;;;;;11.70;5.13;;;;;;;;;;4943251;28;20947;-68
2020/12/21 07:40:53;;;;;;;11.80;4.37;;;;;;;;;;4937015;28;20555;-70
2020/12/21 07:43:22;;;;;;;17.33;4.53;;;;;;;;;;4941176;28;20181;-69
2020/12/21 07:45:47;;;;;;;11.93;4.87;;;;;;;;;;4942595;28;20212;-68
2020/12/21 07:48:13;;;;;;;8.73;4.73;;;;;;;;;;4944036;28;20180;-68
2020/12/21 07:50:39;;;;;;;12.20;5.33;;;;;;;;;;4952108;28;20240;-68
2020/12/21 07:53:04;;;;;;;12.77;5.13;;;;;;;;;;4938741;28;20208;-67
2020/12/21 07:55:29;;;;;;;15.00;5.63;;;;;;;;;;4938775;28;20597;-71
2020/12/21 07:57:55;;;;;;;10.67;5.23;;;;;;;;;;4938394;28;20196;-69
2020/12/21 08:00:20;;;;;;;16.17;4.97;;;;;;;;;;4936947;28;20268;-68
2020/12/21 08:02:49;;;;;;;19.87;6.37;;;;;;;;;;4941502;28;20217;-68
2020/12/21 08:05:18;;;;;;;10.60;5.10;;;;;;;;;;4936968;28;20188;-69
2020/12/21 08:07:43;;;;;;;10.33;5.17;;;;;;;;;;4938361;28;21117;-68
2020/12/21 08:10:10;;;;;;;10.97;5.27;;;;;;;;;;4940088;28;20195;-69
2020/12/21 08:12:36;;;;;;;12.30;5.30;;;;;;;;;;4933888;28;21622;-68
2020/12/21 08:15:02;;;;;;;14.50;6.53;;;;;;;;;;4939557;28;20193;-69
2020/12/21 08:17:28;;;;;;;12.83;6.43;;;;;;;;;;4941807;28;20723;-69
2020/12/21 08:19:55;;;;;;;14.07;8.03;;;;;;;;;;4946660;28;20570;-68
2020/12/21 08:22:20;;;;;;;17.43;8.43;;;;;;;;;;4954486;28;20205;-69
2020/12/21 08:24:46;;;;;;;16.07;8.00;;;;;;;;;;4949000;28;20209;-69
2020/12/21 08:27:17;;;;;;;20.17;8.70;;;;;;;;;;4948183;28;20693;-69
2020/12/21 08:29:43;;;;;;;15.37;8.77;;;;;;;;;;4936159;28;20782;-68
2020/12/21 08:32:08;;;;;;;14.33;7.30;;;;;;;;;;4938317;28;20268;-67
2020/12/21 08:34:33;;;;;;;25.25;8.70;;;;;;;;;;4938427;28;20215;-68
2020/12/21 08:36:58;;;;;;;15.33;7.50;;;;;;;;;;4939284;28;20456;-70
2020/12/21 08:39:23;;;;;;;13.93;6.83;;;;;;;;;;4945619;28;20217;-68
2020/12/21 08:41:53;;;;;;;12.23;7.10;;;;;;;;;;4938049;28;20204;-67
2020/12/21 08:44:20;;;;;;;13.23;6.47;;;;;;;;;;4940798;28;20188;-68
2020/12/21 08:46:51;;;;;;;13.73;6.60;;;;;;;;;;4935997;28;20236;-68
2020/12/21 08:49:17;;;;;;;13.83;6.93;;;;;;;;;;4936401;28;20181;-69
2020/12/21 08:51:42;;;;;;;12.03;6.77;;;;;;;;;;4954609;28;20196;-69
2020/12/21 08:54:07;;;;;;;18.27;7.13;;;;;;;;;;4946795;28;20209;-68
2020/12/21 08:56:33;;;;;;;17.27;7.63;;;;;;;;;;4946127;28;20173;-68
2020/12/21 08:58:58;;;;;;;15.97;8.07;;;;;;;;;;4936857;28;20196;-68
2020/12/21 09:01:23;;;;;;;11.30;7.23;;;;;;;;;;4939812;28;20561;-68
2020/12/21 09:03:49;;;;;;;13.47;7.27;;;;;;;;;;4937317;28;20224;-69
2020/12/21 09:06:24;;;;;;;14.40;7.30;;;;;;;;;;4954594;28;20177;-70
2020/12/21 09:08:50;;;;;;;17.67;8.43;;;;;;;;;;4943960;28;20180;-70
2020/12/21 09:11:21;;;;;;;14.17;7.53;;;;;;;;;;4959977;28;20911;-69
2020/12/21 09:13:47;;;;;;;17.97;8.20;;;;;;;;;;4952657;28;20213;-69
2020/12/21 09:16:16;;;;;;;13.13;7.33;;;;;;;;;;4943304;28;20662;-69
2020/12/21 09:18:42;;;;;;;20.43;8.40;;;;;;;;;;4944040;28;21225;-69
2020/12/21 09:21:07;;;;;;;10.90;6.70;;;;;;;;;;4949270;28;20207;-69
2020/12/21 09:23:32;;;;;;;11.90;7.03;;;;;;;;;;4943335;28;20189;-69
2020/12/21 09:25:57;;;;;;;12.77;6.93;;;;;;;;;;4939166;28;20185;-69
2020/12/21 09:28:22;;;;;;;14.27;7.17;;;;;;;;;;4948903;28;20267;-69
2020/12/21 09:30:48;;;;;;;15.03;7.17;;;;;;;;;;4937945;28;20187;-69
2020/12/21 09:33:13;;;;;;;16.60;8.13;;;;;;;;;;4946267;28;20368;-68
2020/12/21 09:35:38;;;;;;;13.02;7.30;;;;;;;;;;4969270;28;20184;-69
2020/12/21 09:38:03;;;;;;;13.90;6.23;;;;;;;;;;4949779;28;20231;-68
2020/12/21 09:40:28;;;;;;;12.33;6.47;;;;;;;;;;4941630;28;20185;-69
2020/12/21 09:42:54;;;;;;;14.27;7.03;;;;;;;;;;4945887;28;20200;-69
2020/12/21 09:45:19;;;;;;;14.73;7.07;;;;;;;;;;4948756;28;20193;-68
2020/12/21 09:47:45;;;;;;;15.17;5.80;;;;;;;;;;4940314;28;20338;-69
2020/12/21 09:50:10;;;;;;;10.80;6.23;;;;;;;;;;4942031;28;20606;-69
2020/12/21 09:52:35;;;;;;;11.13;6.33;;;;;;;;;;4943205;28;20706;-68
2020/12/21 09:55:01;;;;;;;8.13;5.17;;;;;;;;;;4940563;28;20219;-69
2020/12/21 09:57:26;;;;;;;8.53;4.80;;;;;;;;;;4942698;28;20396;-70
2020/12/21 09:59:51;;;;;;;8.33;5.33;;;;;;;;;;4941475;28;20177;-69
2020/12/21 10:02:16;;;;;;;11.45;5.00;;;;;;;;;;4967522;23;20663;-71
2020/12/21 10:04:41;;;;;;;8.30;4.50;;;;;;;;;;4973586;28;20198;-70
2020/12/21 10:07:06;;;;;;;8.43;5.07;;;;;;;;;;4977001;28;20218;-70
2020/12/21 10:09:32;;;;;;;10.00;5.27;;;;;;;;;;4977326;28;20230;-70
2020/12/21 10:11:57;;;;;;;8.80;4.60;;;;;;;;;;4992536;28;20215;-70
2020/12/21 10:14:22;;;;;;;11.80;5.33;;;;;;;;;;4994107;28;20226;-70
2020/12/21 10:16:51;;;;;;;9.90;6.10;;;;;;;;;;4990598;28;20171;-70
2020/12/21 10:19:16;;;;;;;16.30;4.90;;;;;;;;;;4982083;28;20537;-70
2020/12/21 10:21:41;;;;;;;8.07;5.20;;;;;;;;;;4976590;28;20445;-71
2020/12/21 10:24:06;;;;;;;11.77;5.27;;;;;;;;;;4975656;28;20179;-69
2020/12/21 10:26:37;;;;;;;12.37;4.90;;;;;;;;;;4976723;28;20191;-69
2020/12/21 10:29:02;;;;;;;9.33;5.17;;;;;;;;;;4974528;28;20204;-69
2020/12/21 10:31:30;;;;;;;12.27;5.87;;;;;;;;;;4976905;28;20227;-70
2020/12/21 10:33:55;;;;;;;17.93;4.93;;;;;;;;;;4977463;28;20322;-69
2020/12/21 10:36:20;;;;;;;9.47;4.67;;;;;;;;;;4976476;28;20175;-69
2020/12/21 10:38:47;;;;;;;8.53;4.67;;;;;;;;;;4981467;28;20191;-70
2020/12/21 10:41:12;;;;;;;9.37;4.47;;;;;;;;;;4978773;28;20234;-69
2020/12/21 10:43:37;;;;;;;10.68;4.72;;;;;;;;;;4980545;28;20188;-69
2020/12/21 10:46:02;;;;;;;10.47;4.80;;;;;;;;;;4978191;28;20195;-71
2020/12/21 10:48:27;;;;;;;16.47;6.90;;;;;;;;;;4980411;28;20183;-69
2020/12/21 10:50:54;;;;;;;13.17;5.30;;;;;;;;;;4976228;28;20202;-71
2020/12/21 10:53:20;;;;;;;11.67;4.10;;;;;;;;;;4973139;28;20208;-69
2020/12/21 10:55:45;;;;;;;9.20;4.50;;;;;;;;;;4977227;28;20186;-69
2020/12/21 10:58:10;;;;;;;10.83;4.37;;;;;;;;;;4978036;28;20180;-69
2020/12/21 11:00:35;;;;;;;8.30;4.63;;;;;;;;;;4974405;28;20317;-68
2020/12/21 11:03:00;;;;;;;7.73;5.63;;;;;;;;;;4976540;28;20223;-69
2020/12/21 11:05:25;;;;;;;7.97;4.70;;;;;;;;;;4972241;28;20237;-70
2020/12/21 11:07:51;;;;;;;8.57;4.80;;;;;;;;;;4975570;28;20815;-70
2020/12/21 11:10:16;;;;;;;9.13;3.97;;;;;;;;;;4979154;28;20520;-70
2020/12/21 11:12:41;;;;;;;9.17;3.97;;;;;;;;;;4981454;28;20234;-70
2020/12/21 11:15:06;;;;;;;10.93;4.73;;;;;;;;;;4973167;28;20215;-70
2020/12/21 11:17:31;;;;;;;7.13;4.50;;;;;;;;;;4972788;28;20188;-70
2020/12/21 11:19:58;;;;;;;10.33;4.57;;;;;;;;;;4982284;28;20231;-70
2020/12/21 11:22:23;;;;;;;10.77;4.17;;;;;;;;;;4975219;28;20253;-70
2020/12/21 11:24:48;;;;;;;11.10;5.20;;;;;;;;;;4975996;28;20200;-70
2020/12/21 11:27:15;;;;;;;8.33;4.53;;;;;;;;;;4979445;28;20220;-70
2020/12/21 11:29:40;;;;;;;8.40;4.37;;;;;;;;;;4970398;28;20180;-70
2020/12/21 11:32:06;;;;;;;14.30;5.40;;;;;;;;;;4973531;28;20282;-70
2020/12/21 11:34:31;;;;;;;10.60;4.83;;;;;;;;;;4972858;28;20204;-70
2020/12/21 11:36:56;;;;;;;8.30;5.17;;;;;;;;;;4974616;28;20256;-70
2020/12/21 11:39:21;;;;;;;7.03;4.37;;;;;;;;;;4977583;28;20274;-70
2020/12/21 11:41:46;;;;;;;10.03;4.50;;;;;;;;;;4972459;28;20204;-70
2020/12/21 11:44:11;;;;;;;6.30;4.45;;;;;;;;;;4979456;28;20191;-70
2020/12/21 11:46:37;;;;;;;7.45;4.57;;;;;;;;;;4973823;28;20674;-70
2020/12/21 11:49:03;;;;;;;9.83;4.47;;;;;;;;;;4976371;28;21492;-70
2020/12/21 11:51:29;;;;;;;11.13;4.70;;;;;;;;;;4973183;28;20211;-70
2020/12/21 11:53:54;;;;;;;9.47;4.37;;;;;;;;;;4974571;28;20203;-70
2020/12/21 11:56:19;;;;;;;10.67;4.57;;;;;;;;;;4978726;28;20629;-72
2020/12/21 11:58:45;;;;;;;11.50;4.43;;;;;;;;;;4973685;28;20180;-70
2020/12/21 12:01:10;;;;;;;8.67;4.80;;;;;;;;;;4977476;28;20191;-70
2020/12/21 12:03:35;;;;;;;9.03;4.07;;;;;;;;;;4973028;28;20194;-70
2020/12/21 12:06:01;;;;;;;11.13;4.10;;;;;;;;;;4973643;28;20192;-70
2020/12/21 12:08:26;;;;;;;6.63;4.03;;;;;;;;;;4978622;28;20612;-70
2020/12/21 12:10:51;;;;;;;6.33;3.60;;;;;;;;;;4973856;28;20671;-71
2020/12/21 12:13:16;;;;;;;13.10;4.10;;;;;;;;;;4972099;28;20212;-71
2020/12/21 12:15:41;;;;;;;11.27;4.20;;;;;;;;;;4974565;28;20263;-71
2020/12/21 12:18:06;;;;;;;9.40;4.35;;;;;;;;;;4973710;28;20179;-71
2020/12/21 12:20:32;;;;;;;5.43;3.80;;;;;;;;;;4978634;28;20642;-71
2020/12/21 12:22:57;;;;;;;10.10;3.77;;;;;;;;;;4974324;28;20203;-71
2020/12/21 12:25:22;;;;;;;8.67;3.90;;;;;;;;;;4972183;28;20669;-71
2020/12/21 12:27:47;;;;;;;5.90;3.60;;;;;;;;;;4979563;28;20192;-71
2020/12/21 12:30:12;;;;;;;10.33;3.37;;;;;;;;;;4975655;28;20637;-69
2020/12/21 12:32:37;;;;;;;9.33;3.50;;;;;;;;;;4974426;28;20239;-71
2020/12/21 12:35:03;;;;;;;9.97;3.37;;;;;;;;;;4971597;28;20308;-71
2020/12/21 12:37:28;;;;;;;4.90;3.23;;;;;;;;;;4975785;28;20188;-71
2020/12/21 12:39:53;;;;;;;10.60;3.35;;;;;;;;;;4972940;28;20275;-71
2020/12/21 12:42:18;;;;;;;7.00;3.97;;;;;;;;;;4985107;28;20209;-71
2020/12/21 12:44:43;;;;;;;8.50;3.60;;;;;;;;;;4971675;28;20241;-70
2020/12/21 12:47:09;;;;;;;7.37;3.07;;;;;;;;;;4974535;28;20183;-69
2020/12/21 12:49:34;;;;;;;6.93;3.70;;;;;;;;;;4973136;28;20282;-69
2020/12/21 12:51:59;;;;;;;9.93;3.13;;;;;;;;;;4975460;28;20697;-70
2020/12/21 12:54:24;;;;;;;6.43;3.07;;;;;;;;;;4973812;28;20254;-71
2020/12/21 12:56:50;;;;;;;10.57;3.37;;;;;;;;;;4971723;28;20682;-71
2020/12/21 12:59:15;;;;;;;3.70;2.40;;;;;;;;;;4974216;28;20267;-72
2020/12/21 13:01:40;;;;;;;5.17;2.60;;;;;;;;;;4975432;28;20207;-70
2020/12/21 13:04:05;;;;;;;5.93;3.53;;;;;;;;;;4973038;28;20249;-72
2020/12/21 13:06:30;;;;;;;6.50;2.60;;;;;;;;;;4973684;28;20584;-72
2020/12/21 13:08:56;;;;;;;5.10;2.78;;;;;;;;;;4976342;28;20180;-71
2020/12/21 13:11:21;;;;;;;8.87;3.07;;;;;;;;;;4971421;28;20736;-69
2020/12/21 13:13:46;;;;;;;9.57;4.30;;;;;;;;;;4977533;28;20214;-72
2020/12/21 13:16:11;;;;;;;3.73;2.23;;;;;;;;;;4986392;28;20611;-71
2020/12/21 13:18:37;;;;;;;9.00;3.43;;;;;;;;;;4972287;28;20207;-69
2020/12/21 13:21:02;;;;;;;5.07;2.83;;;;;;;;;;4973405;28;20210;-71
2020/12/21 13:23:27;;;;;;;4.43;2.30;;;;;;;;;;4979483;28;20192;-71
2020/12/21 13:25:52;;;;;;;6.90;2.45;;;;;;;;;;4972463;28;20925;-71
2020/12/21 13:28:17;;;;;;;5.47;2.10;;;;;;;;;;4975103;28;20184;-69
2020/12/21 13:30:43;;;;;;;9.90;2.70;;;;;;;;;;4973898;28;20183;-69
2020/12/21 13:33:08;;;;;;;4.73;2.63;;;;;;;;;;4974883;28;20743;-69
2020/12/21 13:35:33;;;;;;;4.23;2.23;;;;;;;;;;4971646;28;20306;-71
2020/12/21 13:37:58;;;;;;;5.17;2.30;;;;;;;;;;4976119;28;20168;-71
2020/12/21 13:40:23;;;;;;;4.90;2.27;;;;;;;;;;4986235;28;20297;-71
2020/12/21 13:42:48;;;;;;;4.27;2.50;;;;;;;;;;4974591;28;20200;-72
2020/12/21 13:45:14;;;;;;;3.53;2.50;;;;;;;;;;4970091;28;20196;-72
2020/12/21 13:47:39;;;;;;;4.93;2.40;;;;;;;;;;4975929;28;20183;-71
2020/12/21 13:50:05;;;;;;;3.07;2.40;;;;;;;;;;4973054;28;20176;-71
2020/12/21 13:52:31;;;;;;;4.43;1.67;;;;;;;;;;4975516;28;20204;-71
2020/12/21 13:54:56;;;;;;;3.07;1.80;;;;;;;;;;4975117;28;20258;-71
2020/12/21 13:57:21;;;;;;;2.67;2.10;;;;;;;;;;4976714;28;21677;-71
2020/12/21 13:59:46;;;;;;;3.27;1.80;;;;;;;;;;4974651;28;20180;-71
2020/12/21 14:02:11;;;;;;;3.27;1.77;;;;;;;;;;4975879;28;20223;-71
2020/12/21 14:04:37;;;;;;;4.40;2.43;;;;;;;;;;4975991;28;20192;-69
2020/12/21 14:07:02;;;;;;;4.60;2.00;;;;;;;;;;4977523;28;20247;-71
2020/12/21 14:09:27;;;;;;;3.37;2.07;;;;;;;;;;4977197;28;20218;-71
2020/12/21 14:11:52;;;;;;;3.27;1.93;;;;;;;;;;4973762;28;20298;-71
2020/12/21 14:14:17;;;;;;;5.10;1.70;;;;;;;;;;4978308;28;20561;-71
2020/12/21 14:16:42;;;;;;;5.17;2.17;;;;;;;;;;4974461;28;20182;-71
2020/12/21 14:19:08;;;;;;;3.03;1.80;;;;;;;;;;4978021;28;20688;-71
2020/12/21 14:21:34;;;;;;;4.07;2.27;;;;;;;;;;4977198;28;20306;-71
2020/12/21 14:23:59;;;;;;;4.13;1.93;;;;;;;;;;4978079;28;20195;-72
2020/12/21 14:26:28;;;;;;;2.27;2.07;;;;;;;;;;4974152;28;20192;-72